createdAt,value
2018-05-02T00:02:35.033Z,62.00
2018-05-02T00:05:37.496Z,62.80
2018-05-02T00:08:39.933Z,61.80
2018-05-02T00:11:42.374Z,61.30
2018-05-02T00:14:44.822Z,62.10
2018-05-02T00:17:47.267Z,62.10
2018-05-02T00:20:50.490Z,62.00
2018-05-02T00:23:52.952Z,62.00
2018-05-02T00:26:56.152Z,61.80
2018-05-02T00:29:58.589Z,61.70
2018-05-02T00:33:01.054Z,62.40
2018-05-02T00:36:03.505Z,62.70
2018-05-02T00:39:05.959Z,62.50
2018-05-02T00:42:08.402Z,62.40
2018-05-02T00:45:10.848Z,62.20
2018-05-02T00:48:13.293Z,61.90
2018-05-02T00:51:15.741Z,61.30
2018-05-02T00:54:18.958Z,62.40
2018-05-02T00:57:21.466Z,62.40
2018-05-02T01:00:23.918Z,62.40
2018-05-02T01:03:26.353Z,62.30
2018-05-02T01:06:28.813Z,62.30
2018-05-02T01:09:31.268Z,62.60
2018-05-02T01:12:33.701Z,62.60
2018-05-02T01:15:36.922Z,62.90
2018-05-02T01:18:39.357Z,62.90
2018-05-02T01:21:41.816Z,63.30
2018-05-02T01:24:44.262Z,63.10
2018-05-02T01:27:53.503Z,64.10
2018-05-02T01:30:55.953Z,64.30
2018-05-02T01:33:58.402Z,64.40
2018-05-02T01:37:01.618Z,64.80
2018-05-02T01:40:04.061Z,64.80
2018-05-02T01:43:07.270Z,65.50
2018-05-02T01:46:10.490Z,65.20
2018-05-02T01:49:23.791Z,65.20
2018-05-02T01:52:26.243Z,65.40
2018-05-02T01:55:28.694Z,65.50
2018-05-02T01:58:31.137Z,65.50
2018-05-02T02:01:34.365Z,65.30
2018-05-02T02:04:36.804Z,65.30
2018-05-02T02:07:40.021Z,65.00
2018-05-02T02:10:42.473Z,64.90
2018-05-02T02:13:45.690Z,65.50
2018-05-02T02:16:48.149Z,65.50
2018-05-02T02:19:51.341Z,65.00
2018-05-02T02:22:54.562Z,65.30
2018-05-02T02:25:57.026Z,65.30
2018-05-02T02:28:59.466Z,65.60
2018-05-02T02:32:01.914Z,65.20
2018-05-02T02:35:04.359Z,65.20
2018-05-02T02:38:06.805Z,65.60
2018-05-02T02:41:10.025Z,65.70
2018-05-02T02:44:12.461Z,65.60
2018-05-02T02:47:14.910Z,65.60
2018-05-02T02:50:17.354Z,65.50
2018-05-02T02:53:19.810Z,65.50
2018-05-02T02:56:23.036Z,65.90
2018-05-02T02:59:25.475Z,65.90
2018-05-02T03:02:28.685Z,66.10
2018-05-02T03:05:31.126Z,66.00
2018-05-02T03:08:33.569Z,66.40
2018-05-02T03:11:36.026Z,66.60
2018-05-02T03:14:38.466Z,66.30
2018-05-02T03:17:40.934Z,66.60
2018-05-02T03:20:43.392Z,66.70
2018-05-02T03:23:45.828Z,66.70
2018-05-02T03:26:48.270Z,67.10
2018-05-02T03:29:50.750Z,66.70
2018-05-02T03:32:53.193Z,65.90
2018-05-02T03:35:55.645Z,67.00
2018-05-02T03:38:58.086Z,67.10
2018-05-02T03:42:01.314Z,67.20
2018-05-02T03:45:03.753Z,67.20
2018-05-02T03:48:06.977Z,67.30
2018-05-02T03:51:09.430Z,67.30
2018-05-02T03:54:12.638Z,66.80
2018-05-02T03:57:15.841Z,66.30
2018-05-02T04:00:30.299Z,66.30
2018-05-02T04:03:44.629Z,66.40
2018-05-02T04:07:08.738Z,65.70
2018-05-02T04:10:12.150Z,66.60
2018-05-02T04:13:14.606Z,65.10
2018-05-02T04:16:17.042Z,64.40
2018-05-02T04:19:19.490Z,63.90
2018-05-02T04:22:21.942Z,64.40
2018-05-02T04:25:24.386Z,64.30
2018-05-02T04:28:26.838Z,64.40
2018-05-02T04:31:29.273Z,64.30
2018-05-02T04:34:31.725Z,64.30
2018-05-02T04:37:34.949Z,64.00
2018-05-02T04:40:37.387Z,64.00
2018-05-02T04:43:39.838Z,63.70
2018-05-02T04:46:42.281Z,63.30
2018-05-02T04:49:44.730Z,62.80
2018-05-02T04:52:48.125Z,62.70
2018-05-02T04:55:50.483Z,62.80
2018-05-02T04:58:52.934Z,62.60
2018-05-02T05:01:55.381Z,62.10
2018-05-02T05:04:57.844Z,61.10
2018-05-02T05:08:03.880Z,61.90
2018-05-02T05:11:06.318Z,61.90
2018-05-02T05:14:08.769Z,62.30
2018-05-02T05:17:11.217Z,60.70
2018-05-02T05:20:14.441Z,59.00
2018-05-02T05:23:16.898Z,59.00
2018-05-02T05:26:19.333Z,59.10
2018-05-02T05:29:21.786Z,59.20
2018-05-02T05:32:24.239Z,57.20
2018-05-02T05:35:26.694Z,52.50
2018-05-02T05:38:29.919Z,48.00
2018-05-02T05:41:32.366Z,48.00
2018-05-02T05:44:35.623Z,44.80
2018-05-02T05:47:38.077Z,44.80
2018-05-02T05:50:40.521Z,45.00
2018-05-02T05:53:43.741Z,45.10
2018-05-02T05:56:46.187Z,45.80
2018-05-02T05:59:49.416Z,42.20
2018-05-02T06:02:51.866Z,42.20
2018-05-02T06:05:54.311Z,41.30
2018-05-02T06:08:56.777Z,41.00
2018-05-02T06:12:17.835Z,42.10
2018-05-02T06:15:20.291Z,42.00
2018-05-02T06:18:23.506Z,43.90
2018-05-02T06:21:25.953Z,43.50
2018-05-02T06:24:33.557Z,42.90
2018-05-02T06:27:35.998Z,42.20
2018-05-02T06:30:38.466Z,41.20
2018-05-02T06:33:41.032Z,41.00
2018-05-02T06:36:43.494Z,41.00
2018-05-02T06:43:14.413Z,41.10
2018-05-02T06:46:16.854Z,42.90
2018-05-02T06:49:19.344Z,45.10
2018-05-02T06:52:21.761Z,46.90
2018-05-02T06:55:24.982Z,48.50
2018-05-02T06:58:27.440Z,48.50
2018-05-02T07:01:30.652Z,49.30
2018-05-02T07:04:33.100Z,49.30
2018-05-02T07:07:36.305Z,47.80
2018-05-02T07:10:39.530Z,47.40
2018-05-02T07:13:41.987Z,47.30
2018-05-02T07:16:44.433Z,47.20
2018-05-02T07:19:46.894Z,48.70
2018-05-02T07:22:49.333Z,49.00
2018-05-02T07:25:51.793Z,48.40
2018-05-02T07:28:54.243Z,47.20
2018-05-02T07:31:56.695Z,45.90
2018-05-02T07:34:59.260Z,41.60
2018-05-02T07:38:01.708Z,41.00
2018-05-02T07:41:04.164Z,39.10
2018-05-02T07:44:07.384Z,32.40
2018-05-02T07:47:09.838Z,32.30
2018-05-02T07:50:13.058Z,29.40
2018-05-02T07:53:15.508Z,29.40
2018-05-02T07:56:18.723Z,27.20
2018-05-02T07:59:21.423Z,27.10
2018-05-02T08:02:23.867Z,27.40
2018-05-02T08:05:26.326Z,27.30
2018-05-02T08:08:28.769Z,26.60
2018-05-02T08:11:31.217Z,25.40
2018-05-02T08:14:33.690Z,24.80
2018-05-02T08:17:36.132Z,25.00
2018-05-02T08:20:39.355Z,25.90
2018-05-02T08:23:41.797Z,25.80
2018-05-02T08:26:44.254Z,26.60
2018-05-02T08:29:46.701Z,26.60
2018-05-02T08:32:49.151Z,27.30
2018-05-02T08:35:52.372Z,28.50
2018-05-02T08:38:54.854Z,28.50
2018-05-02T08:41:59.010Z,28.90
2018-05-02T08:45:01.470Z,28.90
2018-05-02T08:48:03.909Z,29.70
2018-05-02T08:51:18.290Z,30.10
2018-05-02T08:54:20.733Z,31.50
2018-05-02T08:57:23.271Z,30.80
2018-05-02T09:00:37.193Z,32.50
2018-05-02T09:03:39.695Z,32.50
2018-05-02T09:06:43.001Z,34.60
2018-05-02T09:09:45.437Z,34.70
2018-05-02T09:12:47.901Z,35.60
2018-05-02T09:15:56.318Z,35.60
2018-05-02T09:18:58.823Z,35.40
2018-05-02T09:22:01.278Z,36.20
2018-05-02T09:25:03.735Z,36.60
2018-05-02T09:28:06.189Z,36.70
2018-05-02T09:31:09.474Z,39.10
2018-05-02T09:34:12.686Z,38.60
2018-05-02T09:37:15.134Z,38.30
2018-05-02T09:40:17.577Z,38.10
2018-05-02T09:43:20.041Z,38.50
2018-05-02T09:46:34.941Z,39.00
2018-05-02T09:49:37.383Z,39.50
2018-05-02T09:52:39.849Z,40.60
2018-05-02T09:55:42.291Z,38.30
2018-05-02T09:58:45.141Z,38.80
2018-05-02T10:01:47.593Z,38.70
2018-05-02T10:04:50.038Z,39.20
2018-05-02T10:07:53.265Z,39.70
2018-05-02T10:10:55.705Z,39.70
2018-05-02T10:13:58.927Z,36.30
2018-05-02T10:17:01.375Z,36.30
2018-05-02T10:20:04.757Z,37.90
2018-05-02T10:23:07.209Z,37.90
2018-05-02T10:26:09.665Z,37.90
2018-05-02T10:29:12.118Z,37.00
2018-05-02T10:32:14.575Z,37.90
2018-05-02T10:35:17.022Z,38.10
2018-05-02T10:38:19.462Z,38.40
2018-05-02T10:41:21.920Z,37.30
2018-05-02T10:44:25.138Z,37.20
2018-05-02T10:47:27.581Z,37.20
2018-05-02T10:50:30.861Z,36.90
2018-05-02T10:53:33.244Z,36.80
2018-05-02T10:56:36.463Z,36.30
2018-05-02T10:59:38.911Z,36.20
2018-05-02T11:02:41.353Z,36.70
2018-05-02T11:05:43.805Z,36.70
2018-05-02T11:08:46.248Z,36.60
2018-05-02T11:11:49.463Z,35.00
2018-05-02T11:14:51.910Z,35.00
2018-05-02T11:17:54.353Z,35.70
2018-05-02T11:20:56.805Z,35.40
2018-05-02T11:23:59.258Z,37.00
2018-05-02T11:27:02.475Z,36.90
2018-05-02T11:30:04.925Z,36.70
2018-05-02T11:33:07.369Z,37.50
2018-05-02T11:36:09.817Z,37.10
2018-05-02T11:39:12.266Z,37.20
2018-05-02T11:42:15.482Z,36.40
2018-05-02T11:45:17.929Z,36.40
2018-05-02T11:48:21.149Z,38.20
2018-05-02T11:51:23.597Z,38.20
2018-05-02T11:54:26.830Z,40.40
2018-05-02T11:57:29.277Z,40.40
2018-05-02T12:00:31.731Z,40.20
2018-05-02T12:03:34.215Z,38.30
2018-05-02T12:06:36.617Z,38.50
2018-05-02T12:09:39.086Z,39.10
2018-05-02T12:12:41.535Z,38.70
2018-05-02T12:15:43.981Z,39.60
2018-05-02T12:18:46.429Z,40.10
2018-05-02T12:21:48.905Z,38.90
2018-05-02T12:24:52.097Z,38.30
2018-05-02T12:27:54.621Z,38.30
2018-05-02T12:30:57.753Z,38.50
2018-05-02T12:34:00.193Z,38.50
2018-05-02T12:37:02.660Z,39.40
2018-05-02T12:40:05.109Z,39.40
2018-05-02T12:43:07.556Z,38.60
2018-05-02T12:46:10.022Z,38.20
2018-05-02T12:49:13.229Z,38.70
2018-05-02T12:52:15.685Z,38.70
2018-05-02T12:55:18.898Z,39.70
2018-05-02T12:58:21.353Z,38.90
2018-05-02T13:01:23.798Z,38.80
2018-05-02T13:04:26.245Z,38.60
2018-05-02T13:07:28.699Z,38.00
2018-05-02T13:10:31.921Z,38.20
2018-05-02T13:13:34.370Z,38.10
2018-05-02T13:16:37.596Z,37.60
2018-05-02T13:19:40.033Z,37.60
2018-05-02T13:22:43.262Z,37.30
2018-05-02T13:25:45.733Z,37.10
2018-05-02T13:28:48.184Z,36.70
2018-05-02T13:31:51.391Z,35.90
2018-05-02T13:34:53.834Z,36.40
2018-05-02T13:37:56.289Z,36.60
2018-05-02T13:40:58.737Z,37.90
2018-05-02T13:44:01.181Z,37.60
2018-05-02T13:47:04.402Z,39.00
2018-05-02T13:50:06.838Z,38.90
2018-05-02T13:53:09.289Z,37.90
2018-05-02T13:56:11.749Z,37.70
2018-05-02T13:59:14.214Z,40.40
2018-05-02T14:02:16.672Z,38.00
2018-05-02T14:05:19.120Z,39.20
2018-05-02T14:08:22.352Z,38.90
2018-05-02T14:11:25.554Z,38.30
2018-05-02T14:14:27.997Z,38.30
2018-05-02T14:21:18.881Z,40.20
2018-05-02T14:24:22.317Z,40.50
2018-05-02T14:27:24.762Z,41.50
2018-05-02T14:30:27.213Z,43.40
2018-05-02T14:33:29.654Z,43.90
2018-05-02T14:36:32.879Z,43.30
2018-05-02T14:39:35.330Z,43.30
2018-05-02T14:42:37.789Z,43.90
2018-05-02T14:45:40.233Z,44.20
2018-05-02T14:48:42.682Z,43.60
2018-05-02T14:51:45.134Z,43.30
2018-05-02T14:54:48.344Z,44.10
2018-05-02T14:57:50.793Z,44.10
2018-05-02T15:00:54.020Z,44.00
2018-05-02T15:03:56.461Z,44.00
2018-05-02T15:06:58.910Z,45.40
2018-05-02T15:10:06.834Z,45.80
2018-05-02T15:13:09.281Z,45.90
2018-05-02T15:16:11.744Z,46.00
2018-05-02T15:19:14.201Z,45.60
2018-05-02T15:22:17.409Z,46.30
2018-05-02T15:25:19.849Z,46.20
2018-05-02T15:28:23.074Z,45.20
2018-05-02T15:31:25.515Z,45.20
2018-05-02T15:34:27.962Z,44.80
2018-05-02T15:37:30.405Z,45.30
2018-05-02T15:40:32.850Z,46.40
2018-05-02T15:43:36.070Z,46.50
2018-05-02T15:46:38.525Z,46.40
2018-05-02T15:49:41.737Z,46.00
2018-05-02T15:52:44.189Z,45.90
2018-05-02T15:55:47.405Z,45.90
2018-05-02T15:58:49.857Z,45.50
2018-05-02T16:01:52.305Z,45.80
2018-05-02T16:04:54.753Z,46.00
2018-05-02T16:07:57.346Z,46.20
2018-05-02T16:10:59.798Z,47.10
2018-05-02T16:14:02.314Z,46.00
2018-05-02T16:17:06.770Z,46.20
2018-05-02T16:20:19.853Z,45.40
2018-05-02T16:23:34.334Z,45.40
2018-05-02T16:26:42.529Z,45.50
2018-05-02T16:29:50.877Z,45.90
2018-05-02T16:33:14.087Z,45.70
2018-05-02T16:36:19.481Z,45.70
2018-05-02T16:39:23.902Z,46.00
2018-05-02T16:42:46.312Z,45.90
2018-05-02T16:46:01.286Z,46.30
2018-05-02T16:49:04.727Z,46.70
2018-05-02T16:52:09.146Z,47.20
2018-05-02T16:55:32.671Z,47.20
2018-05-02T17:02:09.532Z,47.50
2018-05-02T17:05:14.714Z,47.70
2018-05-02T17:08:23.093Z,47.60
2018-05-02T17:11:44.128Z,48.20
2018-05-02T17:14:47.469Z,48.30
2018-05-02T17:18:06.791Z,48.00
2018-05-02T17:21:09.238Z,48.80
2018-05-02T17:24:16.202Z,49.40
2018-05-02T17:27:18.644Z,49.40
2018-05-02T17:30:27.893Z,49.30
2018-05-02T17:33:37.956Z,49.70
2018-05-02T17:36:43.717Z,50.00
2018-05-02T17:39:49.890Z,50.00
2018-05-02T17:42:52.342Z,50.10
2018-05-02T17:45:54.785Z,50.60
2018-05-02T17:48:57.245Z,50.70
2018-05-02T17:52:03.181Z,50.90
2018-05-02T17:55:07.609Z,50.90
2018-05-02T17:58:10.061Z,52.10
2018-05-02T18:01:20.913Z,51.70
2018-05-02T18:08:03.653Z,52.20
2018-05-02T18:11:26.301Z,52.20
2018-05-02T18:14:34.935Z,52.40
2018-05-02T18:17:49.377Z,52.60
2018-05-02T18:20:52.821Z,52.80
2018-05-02T18:23:55.275Z,53.10
2018-05-02T18:26:57.713Z,53.20
2018-05-02T18:30:13.497Z,53.50
2018-05-02T18:33:33.382Z,53.70
2018-05-02T18:36:35.828Z,53.90
2018-05-02T18:39:39.058Z,54.20
2018-05-02T18:42:41.504Z,54.20
2018-05-02T18:45:46.629Z,54.30
2018-05-02T18:48:49.076Z,54.80
2018-05-02T18:52:15.306Z,55.00
2018-05-02T18:55:21.197Z,55.00
2018-05-02T18:58:33.784Z,55.70
2018-05-02T19:01:55.570Z,57.10
2018-05-02T19:12:02.742Z,57.50
2018-05-02T19:15:22.389Z,57.70
2018-05-02T19:18:35.125Z,57.30
2018-05-02T19:21:40.808Z,57.00
2018-05-02T19:25:06.445Z,56.90
2018-05-02T19:28:16.158Z,56.80
2018-05-02T19:31:41.673Z,58.10
2018-05-02T19:34:57.742Z,58.50
2018-05-02T19:38:05.286Z,59.30
2018-05-02T19:41:24.621Z,59.90
2018-05-02T19:44:28.993Z,60.20
2018-05-02T19:47:44.402Z,59.60
2018-05-02T19:54:18.725Z,59.00
2018-05-02T20:04:50.565Z,58.10
2018-05-02T20:08:13.131Z,58.10
2018-05-02T20:11:26.413Z,57.50
2018-05-02T20:14:47.245Z,57.20
2018-05-02T20:18:04.058Z,57.20
2018-05-02T20:21:13.027Z,57.20
2018-05-02T20:24:15.469Z,56.70
2018-05-02T20:27:24.443Z,56.70
2018-05-02T20:34:05.109Z,56.60
2018-05-02T20:37:07.569Z,57.00
2018-05-02T20:40:10.019Z,56.80
2018-05-02T20:43:13.241Z,56.80
2018-05-02T20:46:15.693Z,56.80
2018-05-02T20:49:18.942Z,56.90
2018-05-02T20:52:21.363Z,56.90
2018-05-02T20:55:24.651Z,56.70
2018-05-02T20:58:27.043Z,56.50
2018-05-02T21:01:29.506Z,56.40
2018-05-02T21:04:32.721Z,56.10
2018-05-02T21:07:35.198Z,55.90
2018-05-02T21:10:37.641Z,56.10
2018-05-02T21:13:40.098Z,56.10
2018-05-02T21:16:42.558Z,55.90
2018-05-02T21:19:45.002Z,55.90
2018-05-02T21:22:47.453Z,55.70
2018-05-02T21:25:50.668Z,55.20
2018-05-02T21:28:53.121Z,55.20
2018-05-02T21:31:56.340Z,56.20
2018-05-02T21:34:58.777Z,55.60
2018-05-02T21:38:01.234Z,55.50
2018-05-02T21:41:03.678Z,55.50
2018-05-02T21:44:06.134Z,55.80
2018-05-02T21:47:09.349Z,55.90
2018-05-02T21:50:11.804Z,55.90
2018-05-02T21:53:15.014Z,57.00
2018-05-02T21:56:17.461Z,57.00
2018-05-02T21:59:20.674Z,56.00
2018-05-02T22:02:23.120Z,55.80
2018-05-02T22:05:25.582Z,55.90
2018-05-02T22:08:28.013Z,55.80
2018-05-02T22:11:30.476Z,55.60
2018-05-02T22:14:33.683Z,55.50
2018-05-02T22:17:36.143Z,55.40
2018-05-02T22:20:39.374Z,56.10
2018-05-02T22:23:41.818Z,56.00
2018-05-02T22:26:45.050Z,56.30
2018-05-02T22:29:47.501Z,56.30
2018-05-02T22:32:49.962Z,56.40
2018-05-02T22:35:53.184Z,57.20
2018-05-02T22:38:55.626Z,57.10
2018-05-02T22:41:58.850Z,57.70
2018-05-02T22:45:01.318Z,57.70
2018-05-02T22:48:03.758Z,57.40
2018-05-02T22:51:06.209Z,56.90
2018-05-02T22:54:08.654Z,56.80
2018-05-02T22:57:11.104Z,57.60
2018-05-02T23:00:14.313Z,58.20
2018-05-02T23:03:16.758Z,58.20
2018-05-02T23:06:19.213Z,57.90
2018-05-02T23:09:21.650Z,57.60
2018-05-02T23:12:24.101Z,57.70
2018-05-02T23:15:27.309Z,58.50
2018-05-02T23:18:29.748Z,58.40
2018-05-02T23:21:32.210Z,59.40
2018-05-02T23:24:35.412Z,60.90
2018-05-02T23:27:37.865Z,60.90
2018-05-02T23:30:40.314Z,60.70
2018-05-02T23:33:42.762Z,61.60
2018-05-02T23:36:45.211Z,63.10
2018-05-02T23:39:47.655Z,64.10
2018-05-02T23:42:50.102Z,63.70
2018-05-02T23:45:53.313Z,63.70
2018-05-02T23:48:55.764Z,63.70
2018-05-02T23:51:58.206Z,63.70
2018-05-02T23:55:00.647Z,63.70
2018-05-02T23:58:03.097Z,63.80
